Time;durP1;ratioP1;P1;durP2;ratioP2;P2;SDS_P1;SDS_P2;PMS_P1;PMS_P2;Temp;Humidity;BMP_temperature;BMP_pressure;BME280_temperature;BME280_humidity;BME280_pressure;Samples;Min_cycle;Max_cycle;Signal;HPM_P1;HPM_P2
2021/05/12 00:01:11;;;;;;;2.53;0.77;;;10.10;99.90;;;;;;5072198;28;20028;-72
2021/05/12 00:03:36;;;;;;;0.70;0.70;;;10.20;99.90;;;;;;5072042;28;20032;-72
2021/05/12 00:06:03;;;;;;;0.77;0.63;;;10.20;99.90;;;;;;5054024;28;20440;-72
2021/05/12 00:08:29;;;;;;;2.15;0.88;;;10.20;99.90;;;;;;5072063;28;20472;-72
2021/05/12 00:10:55;;;;;;;0.90;0.75;;;10.10;99.90;;;;;;5070914;28;20032;-72
2021/05/12 00:13:21;;;;;;;0.63;0.60;;;9.80;99.90;;;;;;5054054;28;20032;-72
2021/05/12 00:15:46;;;;;;;0.88;0.60;;;9.70;99.90;;;;;;5071794;28;20032;-72
2021/05/12 00:18:14;;;;;;;3.30;0.75;;;9.60;99.90;;;;;;5071941;28;20391;-72
2021/05/12 00:20:41;;;;;;;1.33;0.60;;;9.70;99.90;;;;;;5071953;28;20541;-72
2021/05/12 00:23:11;;;;;;;0.85;0.50;;;9.70;99.90;;;;;;5071870;28;20047;-72
2021/05/12 00:25:37;;;;;;;1.85;0.43;;;9.50;99.90;;;;;;5053699;28;20111;-72
2021/05/12 00:28:03;;;;;;;0.65;0.65;;;9.50;99.90;;;;;;5071817;28;20499;-72
2021/05/12 00:30:29;;;;;;;0.47;0.45;;;9.50;99.90;;;;;;5085657;23;20051;-73
2021/05/12 00:32:55;;;;;;;0.55;0.55;;;9.50;99.90;;;;;;5072113;28;20586;-74
2021/05/12 00:35:21;;;;;;;0.85;0.60;;;9.50;99.90;;;;;;5071979;28;20028;-73
2021/05/12 00:37:47;;;;;;;1.23;0.60;;;9.40;99.90;;;;;;5071896;28;20024;-73
2021/05/12 00:40:14;;;;;;;0.57;0.55;;;9.40;99.90;;;;;;5072143;28;20029;-73
2021/05/12 00:42:41;;;;;;;1.48;1.38;;;9.50;99.90;;;;;;5071811;28;20492;-74
2021/05/12 00:45:10;;;;;;;0.43;0.43;;;9.50;99.90;;;;;;5053879;28;20025;-73
2021/05/12 00:47:36;;;;;;;0.43;0.43;;;9.50;99.90;;;;;;5055070;28;20415;-73
2021/05/12 00:50:03;;;;;;;3.83;0.57;;;9.50;99.90;;;;;;5057823;28;20025;-72
2021/05/12 00:52:29;;;;;;;0.55;0.50;;;9.50;99.90;;;;;;5075693;28;20047;-73
2021/05/12 00:54:55;;;;;;;0.82;0.40;;;9.40;99.90;;;;;;5075596;28;20016;-73
2021/05/12 00:57:22;;;;;;;1.05;0.73;;;9.40;99.90;;;;;;5057737;28;20020;-73
2021/05/12 00:59:51;;;;;;;1.55;0.55;;;9.50;99.90;;;;;;5075625;28;20386;-73
2021/05/12 01:02:17;;;;;;;2.92;0.57;;;9.50;99.90;;;;;;5075470;28;20016;-73
2021/05/12 01:04:43;;;;;;;1.52;0.43;;;9.40;99.90;;;;;;5075456;28;20047;-74
2021/05/12 01:07:08;;;;;;;0.38;0.38;;;9.40;99.90;;;;;;5075489;28;20052;-73
2021/05/12 01:09:34;;;;;;;1.17;0.38;;;9.30;99.90;;;;;;5040835;28;20040;-73
2021/05/12 01:12:00;;;;;;;1.33;0.50;;;9.30;99.90;;;;;;5075333;28;20016;-73
2021/05/12 01:14:27;;;;;;;0.38;0.38;;;9.30;99.90;;;;;;5057317;28;20499;-73
2021/05/12 01:16:53;;;;;;;0.45;0.45;;;9.30;99.90;;;;;;5075126;28;20029;-73
2021/05/12 01:19:20;;;;;;;1.75;0.40;;;9.40;99.90;;;;;;5075175;28;20058;-73
2021/05/12 01:21:46;;;;;;;0.40;0.40;;;9.30;99.90;;;;;;5075121;28;20015;-73
2021/05/12 01:24:12;;;;;;;0.40;0.40;;;9.40;99.90;;;;;;5057080;28;20036;-73
2021/05/12 01:26:38;;;;;;;1.00;0.38;;;9.30;99.90;;;;;;5075042;28;20097;-73
2021/05/12 01:29:05;;;;;;;0.30;0.30;;;9.30;99.90;;;;;;5075036;28;20564;-73
2021/05/12 01:31:44;;;;;;;0.50;0.38;;;9.20;99.90;;;;;;5074850;28;20491;-73
2021/05/12 01:34:18;;;;;;;1.30;0.30;;;9.20;99.90;;;;;;5074906;28;20071;-73
2021/05/12 01:36:45;;;;;;;0.30;0.30;;;9.10;99.90;;;;;;5056994;28;20029;-73
2021/05/12 01:39:13;;;;;;;0.32;0.25;;;9.20;99.90;;;;;;5040263;28;20249;-74
2021/05/12 01:41:39;;;;;;;0.75;0.40;;;9.10;99.90;;;;;;5040139;28;20485;-73
2021/05/12 01:44:09;;;;;;;0.55;0.47;;;9.10;99.90;;;;;;5056734;28;20051;-73
2021/05/12 01:46:36;;;;;;;0.90;0.30;;;9.00;99.90;;;;;;5056671;28;20510;-74
2021/05/12 01:49:02;;;;;;;0.40;0.40;;;9.00;99.90;;;;;;5074719;28;20039;-74
2021/05/12 01:51:28;;;;;;;0.68;0.30;;;8.90;99.90;;;;;;5074571;28;20012;-73
2021/05/12 01:53:54;;;;;;;0.30;0.30;;;8.90;99.90;;;;;;5074456;28;20086;-73
2021/05/12 01:56:20;;;;;;;0.30;0.30;;;8.80;99.90;;;;;;5074450;28;20407;-73
2021/05/12 01:58:46;;;;;;;0.43;0.40;;;8.90;99.90;;;;;;5073353;28;20045;-73
2021/05/12 02:01:12;;;;;;;0.30;0.30;;;8.90;99.90;;;;;;5074307;28;20079;-73
2021/05/12 02:03:38;;;;;;;0.20;0.20;;;8.80;99.90;;;;;;5056576;28;20108;-73
2021/05/12 02:06:04;;;;;;;0.35;0.30;;;8.80;99.90;;;;;;5074357;28;20060;-74
2021/05/12 02:08:31;;;;;;;0.30;0.30;;;8.90;99.90;;;;;;5074351;28;20063;-74
2021/05/12 02:10:59;;;;;;;0.57;0.57;;;9.00;99.90;;;;;;5074224;28;20016;-73
2021/05/12 02:13:26;;;;;;;0.30;0.30;;;9.00;99.90;;;;;;5074312;28;20048;-74
2021/05/12 02:15:52;;;;;;;0.50;0.30;;;9.10;99.90;;;;;;5056192;28;20038;-74
2021/05/12 02:18:18;;;;;;;0.30;0.30;;;9.10;99.90;;;;;;5074132;28;20518;-74
2021/05/12 02:20:44;;;;;;;0.95;0.30;;;9.10;99.90;;;;;;5074069;28;20024;-74
2021/05/12 02:23:14;;;;;;;0.30;0.30;;;9.10;99.90;;;;;;5073990;28;20036;-74
2021/05/12 02:25:41;;;;;;;0.28;0.28;;;9.20;99.90;;;;;;5074380;28;20028;-73
2021/05/12 02:28:08;;;;;;;0.30;0.30;;;9.20;99.90;;;;;;5056087;28;20035;-73
2021/05/12 02:30:34;;;;;;;1.85;0.40;;;9.10;99.90;;;;;;5073781;28;20035;-73
2021/05/12 02:33:00;;;;;;;0.30;0.30;;;9.10;99.90;;;;;;5056123;28;20115;-74
2021/05/12 02:35:26;;;;;;;0.52;0.32;;;9.10;99.90;;;;;;5073911;28;20467;-73
2021/05/12 02:37:53;;;;;;;0.70;0.30;;;9.10;99.90;;;;;;5055766;28;20033;-74
2021/05/12 02:40:21;;;;;;;3.72;0.30;;;9.00;99.90;;;;;;5055726;28;20113;-74
2021/05/12 02:42:48;;;;;;;0.30;0.30;;;9.00;99.90;;;;;;5073629;28;20028;-73
2021/05/12 02:45:14;;;;;;;0.38;0.38;;;9.00;99.90;;;;;;5073597;28;20055;-74
2021/05/12 02:47:41;;;;;;;0.20;0.20;;;8.90;99.90;;;;;;5073506;28;20020;-73
2021/05/12 02:50:10;;;;;;;0.30;0.30;;;8.90;99.90;;;;;;5073596;28;20048;-73
2021/05/12 02:52:37;;;;;;;0.50;0.30;;;8.80;99.90;;;;;;5055590;28;20059;-73
2021/05/12 02:55:03;;;;;;;0.30;0.30;;;8.80;99.90;;;;;;5073449;28;20104;-73
2021/05/12 02:57:29;;;;;;;1.98;0.40;;;8.70;99.90;;;;;;5073229;28;20090;-73
2021/05/12 02:59:55;;;;;;;0.30;0.30;;;8.70;99.90;;;;;;5055208;28;20024;-74
2021/05/12 03:02:21;;;;;;;0.30;0.30;;;8.70;99.90;;;;;;5055224;28;20107;-73
2021/05/12 03:04:47;;;;;;;1.95;0.50;;;8.60;99.90;;;;;;5073254;28;20472;-73
2021/05/12 03:07:13;;;;;;;0.20;0.20;;;8.70;99.90;;;;;;5073218;28;20029;-73
2021/05/12 03:09:39;;;;;;;0.40;0.40;;;8.70;99.90;;;;;;5054929;28;20028;-74
2021/05/12 03:12:05;;;;;;;4.15;0.40;;;8.70;99.90;;;;;;5055134;28;20055;-73
2021/05/12 03:14:31;;;;;;;2.25;0.20;;;8.70;99.90;;;;;;5055109;28;20048;-73
2021/05/12 03:16:57;;;;;;;0.20;0.20;;;8.70;99.90;;;;;;5072992;28;20043;-72
2021/05/12 03:19:26;;;;;;;0.20;0.20;;;8.60;99.90;;;;;;5072869;28;20032;-73
2021/05/12 03:21:56;;;;;;;0.30;0.30;;;8.60;99.90;;;;;;5055054;28;20028;-73
2021/05/12 03:24:23;;;;;;;0.38;0.35;;;8.60;99.90;;;;;;5038241;28;20480;-73
2021/05/12 03:26:49;;;;;;;0.30;0.30;;;8.70;99.90;;;;;;5072778;28;20017;-74
2021/05/12 03:29:14;;;;;;;0.20;0.20;;;8.90;99.90;;;;;;5072768;28;20047;-73
2021/05/12 03:31:40;;;;;;;0.30;0.30;;;9.10;99.90;;;;;;5072689;28;20028;-74
2021/05/12 03:34:07;;;;;;;0.30;0.30;;;9.00;99.90;;;;;;5072651;28;20052;-73
2021/05/12 03:36:33;;;;;;;0.47;0.30;;;9.00;99.90;;;;;;5072600;28;20589;-74
2021/05/12 03:38:59;;;;;;;0.30;0.30;;;9.10;99.90;;;;;;5073178;28;20111;-73
2021/05/12 03:41:25;;;;;;;0.85;0.60;;;9.10;99.90;;;;;;5072944;28;20427;-73
2021/05/12 03:43:50;;;;;;;0.47;0.47;;;9.10;99.90;;;;;;5073035;28;20050;-73
2021/05/12 03:46:16;;;;;;;0.32;0.32;;;9.10;99.90;;;;;;5073441;28;20032;-76
2021/05/12 03:48:42;;;;;;;0.40;0.30;;;9.10;99.90;;;;;;5073082;28;20104;-76
2021/05/12 03:51:08;;;;;;;0.30;0.30;;;9.20;99.90;;;;;;5072697;28;20419;-75
2021/05/12 03:53:33;;;;;;;1.00;0.30;;;9.30;99.90;;;;;;5072730;28;20028;-75
2021/05/12 03:55:59;;;;;;;0.63;0.40;;;9.10;99.90;;;;;;5072218;28;20029;-75
2021/05/12 03:58:25;;;;;;;4.88;0.40;;;9.00;99.90;;;;;;5072029;28;20475;-75
2021/05/12 04:00:51;;;;;;;2.40;0.40;;;8.90;99.90;;;;;;5072077;28;20415;-75
2021/05/12 04:03:17;;;;;;;0.20;0.20;;;8.90;99.90;;;;;;5072011;28;20099;-75
2021/05/12 04:05:43;;;;;;;2.70;0.60;;;8.90;99.90;;;;;;5053936;28;20365;-75
2021/05/12 04:08:09;;;;;;;0.20;0.20;;;8.90;99.90;;;;;;5072064;28;20025;-75
2021/05/12 04:10:34;;;;;;;2.03;0.52;;;8.90;99.90;;;;;;5072044;28;20023;-75
2021/05/12 04:13:00;;;;;;;0.30;0.30;;;9.00;99.90;;;;;;5071827;28;20034;-75
2021/05/12 04:15:27;;;;;;;0.77;0.30;;;9.00;99.90;;;;;;5071919;28;20108;-75
2021/05/12 04:17:53;;;;;;;0.20;0.20;;;9.10;99.90;;;;;;5071801;28;20430;-75
2021/05/12 04:20:20;;;;;;;1.00;0.47;;;9.00;99.90;;;;;;5072002;28;20099;-75
2021/05/12 04:22:47;;;;;;;4.35;0.47;;;8.90;99.90;;;;;;5055792;28;20029;-75
2021/05/12 04:25:22;;;;;;;0.98;0.50;;;9.00;99.90;;;;;;5076044;28;20463;-75
2021/05/12 04:27:49;;;;;;;0.40;0.40;;;9.10;99.90;;;;;;5057909;28;20033;-75
2021/05/12 04:30:18;;;;;;;1.10;0.60;;;9.10;99.90;;;;;;5075930;28;20020;-75
2021/05/12 04:32:45;;;;;;;0.47;0.47;;;9.00;99.90;;;;;;5076022;28;20107;-75
2021/05/12 04:35:18;;;;;;;0.47;0.47;;;9.10;99.90;;;;;;5075823;28;20024;-75
2021/05/12 04:37:44;;;;;;;0.32;0.30;;;9.00;99.90;;;;;;5075659;28;20392;-75
2021/05/12 04:40:10;;;;;;;0.50;0.50;;;9.00;99.90;;;;;;5075594;28;20031;-76
2021/05/12 04:42:37;;;;;;;0.93;0.50;;;9.00;99.90;;;;;;5041084;28;20383;-75
2021/05/12 04:45:08;;;;;;;0.60;0.60;;;9.00;99.90;;;;;;5057719;28;20031;-76
2021/05/12 04:47:33;;;;;;;0.85;0.60;;;9.00;99.90;;;;;;5075515;28;20493;-75
2021/05/12 04:49:59;;;;;;;0.75;0.40;;;9.00;99.90;;;;;;5075624;28;20096;-75
2021/05/12 04:52:25;;;;;;;1.20;0.50;;;9.10;99.90;;;;;;5057600;28;20089;-75
2021/05/12 04:54:51;;;;;;;2.83;0.43;;;9.10;99.90;;;;;;5075419;28;20177;-75
2021/05/12 04:57:17;;;;;;;0.30;0.30;;;9.10;99.90;;;;;;5075256;28;20392;-75
2021/05/12 04:59:42;;;;;;;0.60;0.35;;;9.10;99.90;;;;;;5075443;28;20027;-76
2021/05/12 05:02:11;;;;;;;3.65;0.60;;;9.10;99.90;;;;;;5057424;28;20024;-75
2021/05/12 05:04:40;;;;;;;0.45;0.45;;;9.10;99.90;;;;;;5040628;28;20020;-75
2021/05/12 05:07:06;;;;;;;1.00;0.50;;;9.10;99.90;;;;;;5040465;28;20020;-75
2021/05/12 05:09:32;;;;;;;0.40;0.40;;;8.90;99.90;;;;;;5075123;28;20101;-75
2021/05/12 05:11:57;;;;;;;0.63;0.57;;;8.90;99.90;;;;;;5074976;28;20472;-75
2021/05/12 05:14:23;;;;;;;1.88;0.63;;;8.80;99.90;;;;;;5075263;28;20131;-75
2021/05/12 05:16:49;;;;;;;0.60;0.43;;;8.80;99.90;;;;;;5074989;28;20365;-75
2021/05/12 05:19:15;;;;;;;0.75;0.43;;;8.90;99.90;;;;;;5074972;28;20103;-75
2021/05/12 05:21:41;;;;;;;1.17;0.50;;;8.80;99.90;;;;;;5075093;28;20028;-76
2021/05/12 05:24:08;;;;;;;0.70;0.50;;;8.90;99.90;;;;;;5056974;28;20070;-75
2021/05/12 05:26:34;;;;;;;0.85;0.45;;;9.00;99.90;;;;;;5074747;28;20304;-75
2021/05/12 05:29:01;;;;;;;0.65;0.60;;;9.00;99.90;;;;;;5074843;28;20048;-75
2021/05/12 05:31:27;;;;;;;0.95;0.70;;;8.90;99.90;;;;;;5072620;28;20377;-75
2021/05/12 05:33:54;;;;;;;4.18;1.48;;;8.90;99.90;;;;;;5056638;28;20081;-75
2021/05/12 05:36:20;;;;;;;1.85;0.40;;;9.00;99.90;;;;;;5079497;28;20044;-75
2021/05/12 05:38:45;;;;;;;1.42;0.52;;;9.10;99.90;;;;;;5086119;28;20126;-75
2021/05/12 05:41:11;;;;;;;0.40;0.40;;;9.10;99.90;;;;;;5080462;28;20024;-75
2021/05/12 05:43:37;;;;;;;0.30;0.30;;;9.10;99.90;;;;;;5074436;28;20032;-75
2021/05/12 05:46:03;;;;;;;0.80;0.40;;;9.10;99.90;;;;;;5077921;28;20396;-75
2021/05/12 05:48:29;;;;;;;2.83;0.60;;;9.10;99.90;;;;;;5074289;28;20502;-75
2021/05/12 05:50:56;;;;;;;1.83;0.50;;;9.20;99.90;;;;;;5073105;28;20096;-75
2021/05/12 05:53:22;;;;;;;0.80;0.80;;;9.20;99.90;;;;;;5074572;28;20052;-75
2021/05/12 05:55:48;;;;;;;2.97;1.20;;;9.30;99.90;;;;;;5056023;28;20043;-75
2021/05/12 05:58:14;;;;;;;1.35;1.02;;;9.40;99.90;;;;;;5055965;28;20154;-75
2021/05/12 06:00:44;;;;;;;0.30;0.30;;;9.40;99.90;;;;;;5073155;28;20029;-75
2021/05/12 06:03:10;;;;;;;1.08;0.75;;;9.40;99.90;;;;;;5072315;28;20035;-76
2021/05/12 06:05:36;;;;;;;0.70;0.40;;;9.40;99.90;;;;;;5073859;28;20427;-75
2021/05/12 06:08:01;;;;;;;0.77;0.57;;;9.40;99.90;;;;;;5073514;28;20032;-75
2021/05/12 06:10:29;;;;;;;1.52;0.80;;;9.30;99.90;;;;;;5073833;28;20020;-76
2021/05/12 06:12:54;;;;;;;1.90;0.63;;;9.30;99.90;;;;;;5074203;28;20056;-75
2021/05/12 06:15:20;;;;;;;2.28;0.63;;;9.20;99.90;;;;;;5073558;28;20447;-75
2021/05/12 06:17:47;;;;;;;2.22;0.50;;;9.40;99.90;;;;;;5066080;28;20032;-76
2021/05/12 06:20:14;;;;;;;2.45;0.40;;;9.30;99.90;;;;;;5073749;28;20361;-76
2021/05/12 06:22:40;;;;;;;0.30;0.30;;;9.30;99.90;;;;;;5073597;28;20028;-75
2021/05/12 06:25:07;;;;;;;0.43;0.43;;;9.10;99.90;;;;;;5039029;28;20108;-75
2021/05/12 06:27:33;;;;;;;0.40;0.40;;;9.20;99.90;;;;;;5055456;28;20020;-75
2021/05/12 06:29:59;;;;;;;1.75;0.35;;;9.20;99.90;;;;;;5073637;28;20093;-75
2021/05/12 06:32:24;;;;;;;0.30;0.30;;;9.30;99.90;;;;;;5082516;22;20516;-74
2021/05/12 06:34:50;;;;;;;1.67;0.32;;;9.40;99.90;;;;;;5093325;28;20016;-74
2021/05/12 06:37:16;;;;;;;1.45;0.52;;;9.40;99.90;;;;;;5074534;28;20047;-74
2021/05/12 06:39:41;;;;;;;0.50;0.50;;;9.50;99.90;;;;;;5075393;28;20016;-74
2021/05/12 06:42:07;;;;;;;0.70;0.30;;;9.50;99.90;;;;;;5072161;28;20032;-74
2021/05/12 06:44:33;;;;;;;0.45;0.40;;;9.70;99.90;;;;;;5053461;28;20117;-74
2021/05/12 06:46:59;;;;;;;1.58;0.68;;;9.60;99.90;;;;;;5063776;28;20045;-73
2021/05/12 06:49:24;;;;;;;1.10;0.40;;;9.70;99.90;;;;;;5046673;28;20017;-74
2021/05/12 06:51:50;;;;;;;0.85;0.50;;;9.60;99.90;;;;;;5037039;28;20112;-73
2021/05/12 06:54:16;;;;;;;2.83;0.80;;;9.60;99.90;;;;;;5054562;28;20063;-73
2021/05/12 06:56:42;;;;;;;2.08;1.10;;;9.40;99.90;;;;;;5055051;28;20028;-75
2021/05/12 06:59:07;;;;;;;3.80;2.17;;;9.50;99.90;;;;;;5054899;28;20048;-74
2021/05/12 07:01:33;;;;;;;1.73;1.08;;;9.40;99.90;;;;;;5072175;28;20056;-74
2021/05/12 07:03:59;;;;;;;1.42;1.08;;;9.40;99.90;;;;;;5066165;28;20025;-73
2021/05/12 07:06:25;;;;;;;1.50;1.15;;;9.40;99.90;;;;;;5052681;28;20492;-74
2021/05/12 07:08:51;;;;;;;7.57;2.30;;;9.50;99.90;;;;;;5072073;28;20032;-74
2021/05/12 07:11:18;;;;;;;3.47;1.02;;;9.30;99.90;;;;;;5037097;28;20081;-74
2021/05/12 07:13:44;;;;;;;1.30;0.70;;;9.30;99.90;;;;;;5053797;28;20036;-74
2021/05/12 07:16:10;;;;;;;0.77;0.60;;;9.30;99.90;;;;;;5034732;28;20476;-74
2021/05/12 07:18:36;;;;;;;1.00;0.60;;;9.30;99.90;;;;;;5071774;28;20017;-74
2021/05/12 07:21:02;;;;;;;1.02;0.65;;;9.20;99.90;;;;;;5069703;28;20089;-72
2021/05/12 07:23:28;;;;;;;0.63;0.60;;;9.30;99.90;;;;;;5052272;28;20036;-70
2021/05/12 07:25:57;;;;;;;0.60;0.47;;;9.30;99.90;;;;;;5052289;28;20395;-72
2021/05/12 07:28:25;;;;;;;2.75;0.52;;;9.40;99.90;;;;;;5053216;28;20279;-74
2021/05/12 07:30:51;;;;;;;1.58;0.80;;;9.40;99.90;;;;;;5056020;28;20024;-74
2021/05/12 07:33:17;;;;;;;1.95;0.65;;;9.40;99.90;;;;;;5051483;28;20555;-74
2021/05/12 07:35:43;;;;;;;0.60;0.60;;;9.50;99.90;;;;;;5050320;28;20227;-74
2021/05/12 07:38:09;;;;;;;1.55;0.70;;;9.40;99.90;;;;;;5069348;28;20075;-74
2021/05/12 07:40:35;;;;;;;0.50;0.50;;;9.40;99.90;;;;;;5047997;28;20894;-74
2021/05/12 07:43:04;;;;;;;1.02;0.52;;;9.50;99.90;;;;;;5051375;28;20036;-73
2021/05/12 07:45:30;;;;;;;0.82;0.70;;;9.30;99.90;;;;;;5051042;28;20058;-74
2021/05/12 07:47:55;;;;;;;1.67;0.80;;;9.40;99.90;;;;;;5049673;28;20426;-73
2021/05/12 07:50:22;;;;;;;1.40;0.60;;;9.30;99.90;;;;;;5034486;28;20032;-74
2021/05/12 07:52:48;;;;;;;1.00;0.95;;;9.30;99.90;;;;;;5053265;28;20048;-73
2021/05/12 07:55:14;;;;;;;1.10;0.65;;;9.30;99.90;;;;;;5070759;28;20029;-74
2021/05/12 07:57:40;;;;;;;1.08;0.60;;;9.30;99.90;;;;;;5069669;28;20468;-73
2021/05/12 08:00:07;;;;;;;0.57;0.55;;;9.50;99.90;;;;;;5071072;28;20032;-73
2021/05/12 08:02:34;;;;;;;0.82;0.82;;;9.30;99.90;;;;;;5047632;28;20102;-74
2021/05/12 08:04:59;;;;;;;0.52;0.40;;;9.40;99.90;;;;;;5070673;28;20017;-73
2021/05/12 08:07:25;;;;;;;1.98;1.05;;;9.40;99.90;;;;;;5052113;28;20027;-74
2021/05/12 08:09:51;;;;;;;0.93;0.50;;;9.30;99.90;;;;;;5052506;28;20392;-76
2021/05/12 08:12:17;;;;;;;0.68;0.63;;;9.40;99.90;;;;;;5050602;28;20111;-74
2021/05/12 08:14:42;;;;;;;1.20;0.90;;;9.50;99.90;;;;;;5051555;28;20020;-76
2021/05/12 08:17:08;;;;;;;0.77;0.77;;;9.50;99.90;;;;;;5036440;28;20020;-75
2021/05/12 08:19:34;;;;;;;0.65;0.40;;;9.60;99.90;;;;;;5052491;28;20052;-75
2021/05/12 08:22:05;;;;;;;0.95;0.80;;;9.30;99.90;;;;;;5070797;28;20460;-75
2021/05/12 08:24:31;;;;;;;1.80;0.98;;;9.40;99.90;;;;;;5048110;28;20032;-75
2021/05/12 08:26:57;;;;;;;0.32;0.32;;;9.30;99.90;;;;;;5069009;28;20020;-75
2021/05/12 08:29:24;;;;;;;2.30;0.68;;;9.40;99.90;;;;;;5030267;28;20028;-75
2021/05/12 08:31:50;;;;;;;0.50;0.50;;;9.30;99.90;;;;;;5066481;28;20013;-75
2021/05/12 08:34:15;;;;;;;2.08;0.98;;;9.40;99.90;;;;;;5049645;28;20036;-75
2021/05/12 08:36:41;;;;;;;2.05;0.77;;;9.60;99.90;;;;;;5067301;28;20095;-74
2021/05/12 08:39:09;;;;;;;0.77;0.50;;;9.50;99.90;;;;;;5047987;28;20434;-74
2021/05/12 08:41:36;;;;;;;3.65;0.70;;;9.50;99.90;;;;;;5069162;28;20028;-75
2021/05/12 08:44:05;;;;;;;0.70;0.43;;;9.50;99.90;;;;;;5053010;28;20052;-74
2021/05/12 08:46:32;;;;;;;1.30;0.90;;;9.50;99.90;;;;;;5068866;28;20029;-75
2021/05/12 08:48:59;;;;;;;0.85;0.60;;;9.70;99.90;;;;;;5052398;28;20032;-74
2021/05/12 08:51:26;;;;;;;0.40;0.40;;;9.70;99.90;;;;;;5070544;28;20016;-75
2021/05/12 08:53:55;;;;;;;10.52;2.53;;;9.70;99.90;;;;;;5069828;28;20028;-75
2021/05/12 08:56:21;;;;;;;7.68;2.25;;;9.70;99.90;;;;;;5051872;28;20119;-75
2021/05/12 08:58:48;;;;;;;1.10;0.50;;;9.70;99.90;;;;;;5069779;28;20047;-74
2021/05/12 09:01:15;;;;;;;0.85;0.50;;;9.50;99.90;;;;;;5063436;28;20115;-74
2021/05/12 09:03:43;;;;;;;0.60;0.60;;;9.60;99.90;;;;;;5051744;28;20036;-74
2021/05/12 09:06:10;;;;;;;0.85;0.80;;;9.70;99.90;;;;;;5035037;28;20016;-74
2021/05/12 09:08:36;;;;;;;0.45;0.45;;;9.70;99.90;;;;;;5052709;28;20025;-75
2021/05/12 09:11:02;;;;;;;0.50;0.50;;;9.40;99.90;;;;;;5073665;28;20044;-75
2021/05/12 09:13:37;;;;;;;0.55;0.50;;;9.40;99.90;;;;;;5056007;28;20051;-74
2021/05/12 09:16:23;;;;;;;0.50;0.50;;;9.70;99.90;;;;;;5073113;28;20157;-75
2021/05/12 09:18:59;;;;;;;0.30;0.30;;;9.50;99.90;;;;;;5039530;28;20052;-74
2021/05/12 09:21:41;;;;;;;0.68;0.50;;;9.50;99.90;;;;;;5073211;28;20107;-75
2021/05/12 09:24:20;;;;;;;0.32;0.32;;;9.60;99.90;;;;;;5069374;28;20032;-75
2021/05/12 09:26:51;;;;;;;1.50;0.70;;;9.70;99.90;;;;;;5055066;28;20029;-75
2021/05/12 09:29:25;;;;;;;0.47;0.47;;;9.70;99.90;;;;;;5038778;28;20027;-74
2021/05/12 09:32:01;;;;;;;0.40;0.40;;;9.70;99.90;;;;;;5054528;28;20816;-75
2021/05/12 09:34:27;;;;;;;1.45;0.75;;;9.70;99.90;;;;;;5055914;28;20032;-75
2021/05/12 09:36:53;;;;;;;2.15;0.80;;;9.80;99.90;;;;;;5071839;28;20020;-75
2021/05/12 09:39:19;;;;;;;1.23;0.60;;;9.80;99.90;;;;;;5053053;28;20387;-75
2021/05/12 09:41:44;;;;;;;1.23;0.77;;;9.80;99.90;;;;;;5054926;28;20487;-75
2021/05/12 09:44:11;;;;;;;0.52;0.43;;;9.80;99.90;;;;;;5055219;28;20029;-75
2021/05/12 09:46:38;;;;;;;1.30;0.70;;;9.70;99.90;;;;;;5073540;28;20380;-74
2021/05/12 09:49:04;;;;;;;1.20;0.77;;;9.80;99.90;;;;;;5073029;28;20029;-74
2021/05/12 09:51:38;;;;;;;0.60;0.60;;;10.00;99.90;;;;;;5053472;28;20626;-75
2021/05/12 09:54:08;;;;;;;0.88;0.60;;;10.00;99.90;;;;;;5038761;28;20070;-75
2021/05/12 09:56:44;;;;;;;0.75;0.50;;;9.70;99.90;;;;;;5070860;28;20056;-75
2021/05/12 09:59:16;;;;;;;1.17;0.52;;;9.60;99.90;;;;;;5068990;28;20408;-74
2021/05/12 10:01:46;;;;;;;;;;;9.60;99.90;;;;;;5073356;28;20086;-75
2021/05/12 10:04:22;;;;;;;0.50;0.50;;;9.70;99.90;;;;;;5055582;28;19957;-75
2021/05/12 10:06:50;;;;;;;1.08;0.88;;;9.80;99.90;;;;;;5072649;28;20017;-75
2021/05/12 10:09:20;;;;;;;0.63;0.60;;;9.80;99.90;;;;;;5072930;28;20104;-75
2021/05/12 10:12:19;;;;;;;0.73;0.70;;;9.90;99.90;;;;;;5072586;28;20433;-75
2021/05/12 10:14:50;;;;;;;1.92;0.60;;;9.90;99.90;;;;;;5042948;28;20036;-75
2021/05/12 10:17:18;;;;;;;0.85;0.70;;;9.80;99.90;;;;;;5064639;28;20024;-75
2021/05/12 10:19:45;;;;;;;0.30;0.30;;;9.80;99.90;;;;;;5037231;28;20068;-75
2021/05/12 10:22:13;;;;;;;0.40;0.40;;;9.90;99.90;;;;;;5038235;28;20119;-75
2021/05/12 10:24:42;;;;;;;1.50;0.57;;;9.90;99.90;;;;;;5050645;28;20036;-75
2021/05/12 10:27:12;;;;;;;0.90;0.60;;;9.90;99.90;;;;;;5072417;28;20017;-75
2021/05/12 10:29:41;;;;;;;1.20;0.90;;;10.00;99.90;;;;;;5037600;28;20048;-75
2021/05/12 10:32:24;;;;;;;0.63;0.50;;;9.90;99.90;;;;;;5072432;28;20027;-75
2021/05/12 10:35:07;;;;;;;0.60;0.60;;;10.00;99.90;;;;;;5071932;28;20021;-76
2021/05/12 10:37:36;;;;;;;1.10;0.70;;;9.90;99.90;;;;;;5072414;28;20103;-75
2021/05/12 10:40:25;;;;;;;0.70;0.68;;;9.90;99.90;;;;;;5032956;28;20081;-75
2021/05/12 10:43:22;;;;;;;1.58;0.60;;;10.00;99.90;;;;;;5054451;28;20631;-75
2021/05/12 10:48:28;;;;;;;0.45;0.45;;;10.00;99.90;;;;;;5072217;28;20025;-75
2021/05/12 10:50:55;;;;;;;3.13;0.60;;;10.00;99.90;;;;;;5053909;28;20028;-75
2021/05/12 10:53:25;;;;;;;1.40;1.10;;;10.00;99.90;;;;;;5061399;28;20029;-75
2021/05/12 10:55:57;;;;;;;1.70;0.77;;;9.80;99.90;;;;;;5053991;28;20112;-75
2021/05/12 10:58:23;;;;;;;;;;;10.00;99.90;;;;;;5054361;28;20042;-75
2021/05/12 11:00:58;;;;;;;5.63;0.90;;;10.00;99.90;;;;;;5054217;28;19904;-75
2021/05/12 11:03:25;;;;;;;1.10;1.00;;;10.00;99.90;;;;;;5065526;28;20843;-75
2021/05/12 11:05:51;;;;;;;0.90;0.70;;;10.00;99.90;;;;;;5054295;28;20426;-74
2021/05/12 11:08:20;;;;;;;4.32;1.45;;;9.80;99.90;;;;;;5071385;28;20033;-75
2021/05/12 11:11:05;;;;;;;1.27;0.82;;;9.90;99.90;;;;;;5053723;28;20023;-75
2021/05/12 11:13:33;;;;;;;2.55;1.08;;;9.90;99.90;;;;;;5053555;28;20038;-75
2021/05/12 11:16:04;;;;;;;3.17;1.30;;;9.80;99.90;;;;;;5037269;28;20052;-74
2021/05/12 11:18:42;;;;;;;1.13;0.87;;;10.00;99.90;;;;;;5054187;28;20025;-75
2021/05/12 11:21:22;;;;;;;1.40;1.02;;;9.90;99.90;;;;;;5037460;28;20460;-74
2021/05/12 11:24:00;;;;;;;1.40;1.10;;;9.90;99.90;;;;;;5071554;28;20020;-75
2021/05/12 11:31:07;;;;;;;0.80;0.80;;;9.70;99.90;;;;;;5071571;28;20024;-75
2021/05/12 11:32:05;;;;;;;2.95;2.20;;;9.70;99.90;;;;;;5052173;28;20016;-74
2021/05/12 11:34:31;;;;;;;2.30;1.08;;;9.80;99.90;;;;;;5053271;28;20024;-75
2021/05/12 11:37:24;;;;;;;0.77;0.75;;;10.00;99.90;;;;;;5071267;28;20032;-75
2021/05/12 11:39:52;;;;;;;1.63;0.90;;;9.80;99.90;;;;;;5051488;28;20511;-75
2021/05/12 11:42:30;;;;;;;0.73;0.73;;;9.80;99.90;;;;;;5071594;28;20036;-75
2021/05/12 11:45:10;;;;;;;0.60;0.60;;;9.70;99.90;;;;;;5049225;28;20040;-75
2021/05/12 11:47:44;;;;;;;0.98;0.50;;;9.80;99.90;;;;;;5054515;28;20012;-72
2021/05/12 11:50:22;;;;;;;1.35;0.75;;;9.80;99.90;;;;;;5054225;28;20021;-72
2021/05/12 11:52:49;;;;;;;1.30;1.02;;;9.70;99.90;;;;;;5054078;28;20025;-76
2021/05/12 11:55:18;;;;;;;1.92;1.40;;;9.80;99.90;;;;;;5033084;28;20027;-75
2021/05/12 11:57:50;;;;;;;1.27;0.70;;;9.70;99.90;;;;;;5036650;28;20438;-76
2021/05/12 12:00:19;;;;;;;1.42;0.70;;;9.80;99.90;;;;;;5053350;28;20032;-76
2021/05/12 12:03:07;;;;;;;4.30;1.80;;;9.80;99.90;;;;;;5053317;28;20033;-75
2021/05/12 12:05:42;;;;;;;0.90;0.70;;;9.90;99.90;;;;;;5033748;28;20173;-76
2021/05/12 12:08:16;;;;;;;7.03;0.90;;;9.90;99.90;;;;;;5051249;28;20474;-76
2021/05/12 12:10:43;;;;;;;1.60;0.82;;;9.90;99.90;;;;;;5036342;28;20046;-75
2021/05/12 12:13:14;;;;;;;6.88;1.63;;;10.00;99.90;;;;;;5053147;28;20174;-76
2021/05/12 12:15:45;;;;;;;0.85;0.80;;;10.00;99.90;;;;;;5070746;28;20084;-75
2021/05/12 12:18:12;;;;;;;1.63;0.73;;;10.20;99.90;;;;;;5048877;28;20491;-76
2021/05/12 12:20:38;;;;;;;2.55;0.70;;;10.30;99.90;;;;;;5052588;28;20368;-76
2021/05/12 12:23:05;;;;;;;1.10;1.00;;;10.20;99.90;;;;;;5052747;28;20032;-74
2021/05/12 12:25:52;;;;;;;1.13;0.80;;;10.10;99.90;;;;;;5053261;28;20021;-75
2021/05/12 12:28:18;;;;;;;2.05;0.80;;;10.10;99.90;;;;;;5068015;28;20024;-75
2021/05/12 12:30:44;;;;;;;0.60;0.60;;;10.00;99.90;;;;;;5053456;28;20115;-75
2021/05/12 12:33:09;;;;;;;0.93;0.60;;;10.10;99.90;;;;;;5036409;28;20039;-75
2021/05/12 12:35:35;;;;;;;1.95;1.10;;;10.20;99.90;;;;;;5069892;28;20142;-72
2021/05/12 12:38:14;;;;;;;1.05;0.80;;;10.10;99.90;;;;;;5052505;28;20035;-74
2021/05/12 12:40:46;;;;;;;1.52;0.60;;;10.10;99.90;;;;;;5065836;28;20044;-74
2021/05/12 12:43:11;;;;;;;;;;;10.10;99.90;;;;;;5054084;28;20539;-74
2021/05/12 12:45:42;;;;;;;2.72;0.65;;;9.90;99.90;;;;;;5056369;28;20010;-73
2021/05/12 12:48:08;;;;;;;2.63;0.70;;;9.80;99.90;;;;;;5069615;28;20020;-74
2021/05/12 12:50:35;;;;;;;3.95;1.20;;;9.80;99.90;;;;;;5056574;28;20044;-74
2021/05/12 12:53:04;;;;;;;0.60;0.60;;;9.80;99.90;;;;;;5057065;28;20120;-73
2021/05/12 12:55:32;;;;;;;1.63;0.90;;;9.90;99.90;;;;;;5074271;28;20106;-74
2021/05/12 12:57:58;;;;;;;1.13;0.80;;;9.70;99.90;;;;;;5040074;28;20028;-74
2021/05/12 13:00:32;;;;;;;0.60;0.60;;;9.80;99.90;;;;;;5074651;28;20082;-73
2021/05/12 13:03:07;;;;;;;2.05;0.65;;;9.90;99.90;;;;;;5074640;28;20028;-74
2021/05/12 13:05:53;;;;;;;8.57;1.00;;;9.80;99.90;;;;;;5052845;28;20092;-74
2021/05/12 13:08:25;;;;;;;4.07;1.08;;;10.00;99.90;;;;;;5055880;28;20036;-74